Terminal Aerodrome Forecast
Issued by NWS Chicago, IL

Home | Current Version | Previous Version | Text Only | Print | Product List | Glossary Off
Versions: 1 2 3 4 5 6 7 8 9 10 11 12 13 14 15 16 17 18 19 20 21 22 23 24 25 26 27

000
FTUS43 KLOT 170859 AAB
TAFRFD
TAF AMD
KRFD 170859Z 1709/1806 17008KT P6SM VCSH BKN120 BKN250
      TEMPO 1712/1714 -SHRA
     FM171400 20006KT P6SM SCT035 BKN120
     FM171600 32008KT P6SM SCT015 BKN035
     FM172100 34008KT P6SM BKN250
     FM180100 02007KT P6SM SCT250=

USA.gov is the U.S. government's official web portal to all federal, state and local government web resources and services.